createdAt,value
2019-05-02T00:01:46.166Z,10.10
2019-05-02T00:04:21.018Z,11.03
2019-05-02T00:07:05.644Z,11.23
2019-05-02T00:09:47.388Z,10.30
2019-05-02T00:12:25.788Z,10.70
2019-05-02T00:15:01.963Z,11.03
2019-05-02T00:17:36.417Z,11.50
2019-05-02T00:20:10.749Z,11.10
2019-05-02T00:22:48.033Z,11.47
2019-05-02T00:25:34.165Z,11.40
2019-05-02T00:28:12.497Z,11.33
2019-05-02T00:30:52.295Z,11.97
2019-05-02T00:33:29.237Z,12.37
2019-05-02T00:36:10.326Z,11.30
2019-05-02T00:38:43.880Z,12.40
2019-05-02T00:41:17.182Z,13.83
2019-05-02T00:43:51.164Z,12.20
2019-05-02T00:46:25.089Z,12.57
2019-05-02T00:49:07.907Z,12.77
2019-05-02T00:51:50.368Z,13.10
2019-05-02T00:54:25.249Z,12.77
2019-05-02T00:56:59.352Z,12.60
2019-05-02T00:59:32.847Z,13.67
2019-05-02T01:02:13.458Z,13.10
2019-05-02T01:04:48.719Z,12.50
2019-05-02T01:07:25.482Z,13.77
2019-05-02T01:10:06.377Z,13.13
2019-05-02T01:12:48.936Z,13.67
2019-05-02T01:15:22.246Z,13.57
2019-05-02T01:17:55.726Z,14.87
2019-05-02T01:20:29.341Z,14.33
2019-05-02T01:23:02.557Z,14.23
2019-05-02T01:25:37.409Z,14.47
2019-05-02T01:28:38.787Z,13.83
2019-05-02T01:31:22.817Z,14.20
2019-05-02T01:34:32.614Z,14.67
2019-05-02T01:37:11.852Z,14.87
2019-05-02T01:39:46.331Z,14.67
2019-05-02T01:42:39.649Z,16.27
2019-05-02T01:45:06.772Z,14.00
2019-05-02T01:47:40.160Z,15.70
2019-05-02T01:50:13.945Z,15.73
2019-05-02T01:52:47.471Z,15.83
2019-05-02T01:55:22.331Z,15.57
2019-05-02T01:57:55.532Z,15.50
2019-05-02T02:00:29.704Z,17.00
2019-05-02T02:03:12.054Z,16.07
2019-05-02T02:05:45.694Z,17.17
2019-05-02T02:08:18.854Z,17.67
2019-05-02T02:10:56.211Z,18.07
2019-05-02T02:13:31.306Z,18.20
2019-05-02T02:16:04.410Z,19.80
2019-05-02T02:18:59.118Z,19.83
2019-05-02T02:21:42.744Z,19.47
2019-05-02T02:24:34.322Z,19.97
2019-05-02T02:27:07.639Z,20.40
2019-05-02T02:29:44.056Z,20.07
2019-05-02T02:32:20.129Z,20.53
2019-05-02T02:34:52.099Z,20.83
2019-05-02T02:37:25.245Z,22.37
2019-05-02T02:39:58.433Z,22.23
2019-05-02T02:42:43.327Z,22.87
2019-05-02T02:45:37.768Z,22.77
2019-05-02T02:48:11.231Z,23.27
2019-05-02T02:50:45.405Z,23.53
2019-05-02T02:53:33.522Z,24.17
2019-05-02T02:56:09.476Z,24.67
2019-05-02T02:58:51.604Z,25.20
2019-05-02T03:01:28.558Z,24.17
2019-05-02T03:04:01.777Z,24.17
2019-05-02T03:06:38.441Z,23.97
2019-05-02T03:09:10.482Z,25.33
2019-05-02T03:12:04.555Z,25.50
2019-05-02T03:14:47.250Z,24.30
2019-05-02T03:17:29.215Z,26.17
2019-05-02T03:20:03.824Z,25.47
2019-05-02T03:22:41.790Z,24.67
2019-05-02T03:25:18.418Z,25.23
2019-05-02T03:27:48.055Z,24.87
2019-05-02T03:30:32.573Z,27.00
2019-05-02T03:33:06.524Z,24.33
2019-05-02T03:35:48.423Z,25.30
2019-05-02T03:38:32.632Z,25.13
2019-05-02T03:41:20.929Z,26.07
2019-05-02T03:44:10.708Z,26.13
2019-05-02T03:46:45.336Z,26.37
2019-05-02T03:49:17.081Z,25.33
2019-05-02T03:51:55.837Z,25.70
2019-05-02T03:54:26.437Z,27.07
2019-05-02T03:57:02.171Z,26.60
2019-05-02T03:59:46.949Z,26.83
2019-05-02T04:02:21.808Z,28.10
2019-05-02T04:05:07.245Z,29.97
2019-05-02T04:07:49.594Z,28.37
2019-05-02T04:10:52.790Z,28.03
2019-05-02T04:13:30.172Z,29.13
2019-05-02T04:16:14.296Z,30.00
2019-05-02T04:18:54.649Z,29.27
2019-05-02T04:21:25.952Z,28.47
2019-05-02T04:24:10.762Z,28.50
2019-05-02T04:26:34.156Z,30.20
2019-05-02T04:29:08.747Z,30.33
2019-05-02T04:31:42.562Z,30.20
2019-05-02T04:34:18.838Z,29.70
2019-05-02T04:37:04.009Z,29.63
2019-05-02T04:39:48.855Z,30.37
2019-05-02T04:42:39.232Z,29.67
2019-05-02T04:45:29.096Z,29.27
2019-05-02T04:48:03.056Z,29.60
2019-05-02T04:50:40.402Z,30.43
2019-05-02T04:53:13.577Z,30.63
2019-05-02T04:55:52.089Z,31.40
2019-05-02T04:58:27.831Z,31.60
2019-05-02T05:01:01.560Z,33.03
2019-05-02T05:03:32.579Z,32.70
2019-05-02T05:06:12.230Z,33.90
2019-05-02T05:08:42.947Z,33.43
2019-05-02T05:11:20.742Z,32.70
2019-05-02T05:13:59.008Z,32.33
2019-05-02T05:16:40.085Z,32.63
2019-05-02T05:19:13.491Z,31.57
2019-05-02T05:21:47.653Z,32.37
2019-05-02T05:24:42.306Z,30.63
2019-05-02T05:27:18.846Z,32.03
2019-05-02T05:29:53.729Z,32.33
2019-05-02T05:32:25.089Z,33.43
2019-05-02T05:35:03.460Z,32.00
2019-05-02T05:37:38.081Z,31.37
2019-05-02T05:40:10.887Z,33.63
2019-05-02T05:42:44.791Z,30.90
2019-05-02T05:45:27.906Z,31.30
2019-05-02T05:48:10.294Z,31.47
2019-05-02T05:50:43.884Z,32.07
2019-05-02T05:53:21.370Z,31.93
2019-05-02T05:56:04.848Z,32.23
2019-05-02T05:58:52.565Z,31.27
2019-05-02T06:01:25.976Z,32.23
2019-05-02T06:04:00.626Z,30.67
2019-05-02T06:06:34.515Z,31.50
2019-05-02T06:09:09.569Z,31.80
2019-05-02T06:11:42.756Z,32.10
2019-05-02T06:14:26.191Z,31.83
2019-05-02T06:16:59.559Z,31.10
2019-05-02T06:19:33.161Z,31.03
2019-05-02T06:22:06.677Z,30.87
2019-05-02T06:24:40.500Z,31.33
2019-05-02T06:27:13.676Z,31.70
2019-05-02T06:29:57.310Z,30.70
2019-05-02T06:32:30.973Z,29.67
2019-05-02T06:35:04.495Z,29.83
2019-05-02T06:37:40.581Z,28.80
2019-05-02T06:40:13.208Z,30.00
2019-05-02T06:42:46.478Z,29.57
2019-05-02T06:45:20.399Z,29.17
2019-05-02T06:47:53.647Z,29.53
2019-05-02T06:50:26.807Z,30.40
2019-05-02T06:53:09.539Z,29.60
2019-05-02T06:55:43.845Z,30.20
2019-05-02T06:58:17.500Z,30.70
2019-05-02T07:01:02.208Z,31.80
2019-05-02T07:03:35.573Z,30.43
2019-05-02T07:06:09.215Z,30.80
2019-05-02T07:08:42.769Z,32.67
2019-05-02T07:11:26.629Z,32.00
2019-05-02T07:14:13.654Z,32.90
2019-05-02T07:16:54.555Z,32.80
2019-05-02T07:19:33.898Z,35.27
2019-05-02T07:22:07.485Z,35.33
2019-05-02T07:24:41.076Z,35.87
2019-05-02T07:27:14.241Z,35.97
2019-05-02T07:29:47.461Z,35.73
2019-05-02T07:32:29.631Z,34.83
2019-05-02T07:35:03.577Z,35.40
2019-05-02T07:37:48.787Z,35.83
2019-05-02T07:40:22.843Z,34.30
2019-05-02T07:42:56.369Z,34.47
2019-05-02T07:45:30.926Z,32.57
2019-05-02T07:48:04.697Z,35.00
2019-05-02T07:50:41.282Z,33.27
2019-05-02T07:53:15.165Z,34.33
2019-05-02T07:55:49.402Z,33.90
2019-05-02T07:58:32.800Z,33.37
2019-05-02T08:01:08.025Z,33.70
2019-05-02T08:03:42.404Z,34.20
2019-05-02T08:06:17.458Z,33.07
2019-05-02T08:09:09.374Z,33.33
2019-05-02T08:11:59.846Z,32.87
2019-05-02T08:14:49.832Z,31.33
2019-05-02T08:17:39.689Z,33.33
2019-05-02T08:20:13.546Z,31.70
2019-05-02T08:22:48.931Z,33.10
2019-05-02T08:25:23.121Z,33.93
2019-05-02T08:28:26.882Z,33.20
2019-05-02T08:31:19.036Z,32.57
2019-05-02T08:34:14.694Z,33.83
2019-05-02T08:37:03.340Z,33.77
2019-05-02T08:39:53.580Z,34.67
2019-05-02T08:42:32.194Z,31.87
2019-05-02T08:45:03.139Z,34.07
2019-05-02T08:47:37.144Z,33.00
2019-05-02T08:50:19.132Z,33.60
2019-05-02T08:52:52.306Z,33.80
2019-05-02T08:55:29.815Z,33.00
2019-05-02T08:58:14.498Z,32.77
2019-05-02T09:00:47.338Z,32.53
2019-05-02T09:03:21.236Z,31.60
2019-05-02T09:06:05.260Z,31.17
2019-05-02T09:08:31.640Z,33.63
2019-05-02T09:11:15.887Z,33.17
2019-05-02T09:13:52.470Z,30.83
2019-05-02T09:16:36.192Z,31.87
2019-05-02T09:19:13.524Z,31.63
2019-05-02T09:21:47.867Z,33.10
2019-05-02T09:24:23.935Z,32.93
2019-05-02T09:27:06.517Z,33.97
2019-05-02T09:29:51.898Z,34.20
2019-05-02T09:32:26.588Z,35.43
2019-05-02T09:35:08.899Z,37.17
2019-05-02T09:37:42.470Z,38.23
2019-05-02T09:40:17.184Z,38.77
2019-05-02T09:43:02.802Z,38.13
2019-05-02T09:45:37.570Z,39.17
2019-05-02T09:48:22.885Z,38.00
2019-05-02T09:50:57.910Z,37.50
2019-05-02T09:53:33.039Z,36.83
2019-05-02T09:56:15.198Z,36.93
2019-05-02T09:58:49.397Z,36.70
2019-05-02T10:01:38.962Z,36.00
2019-05-02T10:04:12.510Z,34.67
2019-05-02T10:06:46.013Z,36.63
2019-05-02T10:09:24.255Z,34.90
2019-05-02T10:11:54.938Z,34.27
2019-05-02T10:14:29.684Z,34.50
2019-05-02T10:17:07.157Z,35.97
2019-05-02T10:19:41.175Z,36.10
2019-05-02T10:22:14.747Z,37.13
2019-05-02T10:24:57.457Z,37.10
2019-05-02T10:27:32.278Z,38.63
2019-05-02T10:30:11.972Z,37.07
2019-05-02T10:32:42.730Z,38.10
2019-05-02T10:35:20.172Z,36.57
2019-05-02T10:37:53.665Z,34.70
2019-05-02T10:40:27.233Z,33.53
2019-05-02T10:43:02.746Z,34.23
2019-05-02T10:45:36.295Z,34.17
2019-05-02T10:48:28.598Z,32.80
2019-05-02T10:51:19.134Z,33.53
2019-05-02T10:53:56.260Z,34.80
2019-05-02T10:56:27.662Z,33.20
2019-05-02T10:59:02.243Z,32.10
2019-05-02T11:02:05.429Z,32.47
2019-05-02T11:04:42.776Z,30.40
2019-05-02T11:07:28.710Z,33.17
2019-05-02T11:10:05.394Z,31.80
2019-05-02T11:12:59.281Z,30.73
2019-05-02T11:15:52.373Z,30.53
2019-05-02T11:18:40.418Z,31.07
2019-05-02T11:21:04.414Z,32.23
2019-05-02T11:23:37.713Z,31.30
2019-05-02T11:26:14.524Z,31.10
2019-05-02T11:28:46.199Z,31.27
2019-05-02T11:31:28.055Z,30.50
2019-05-02T11:34:01.940Z,31.47
2019-05-02T11:36:36.015Z,29.43
2019-05-02T11:39:26.501Z,28.53
2019-05-02T11:41:53.042Z,28.50
2019-05-02T11:44:26.741Z,29.27
2019-05-02T11:47:02.016Z,29.20
2019-05-02T11:49:36.780Z,30.03
2019-05-02T11:52:11.828Z,32.13
2019-05-02T11:54:54.122Z,29.87
2019-05-02T11:57:30.255Z,31.07
2019-05-02T12:00:05.022Z,30.13
2019-05-02T12:02:58.380Z,29.30
2019-05-02T12:05:38.945Z,30.97
2019-05-02T12:08:19.861Z,28.33
2019-05-02T12:10:52.824Z,28.73
2019-05-02T12:13:34.720Z,29.97
2019-05-02T12:16:12.454Z,28.90
2019-05-02T12:19:09.602Z,28.70
2019-05-02T12:21:39.225Z,27.93
2019-05-02T12:24:12.761Z,28.87
2019-05-02T12:26:55.886Z,29.53
2019-05-02T12:29:30.510Z,26.63
2019-05-02T12:32:22.374Z,26.47
2019-05-02T12:34:55.653Z,26.20
2019-05-02T12:37:29.156Z,26.63
2019-05-02T12:40:02.769Z,25.83
2019-05-02T12:42:36.354Z,27.93
2019-05-02T12:45:12.193Z,27.80
2019-05-02T12:47:46.936Z,29.33
2019-05-02T12:50:22.483Z,27.70
2019-05-02T12:52:56.288Z,25.93
2019-05-02T12:55:29.812Z,26.73
2019-05-02T12:58:03.270Z,25.83
2019-05-02T13:00:36.887Z,25.80
2019-05-02T13:03:35.304Z,26.77
2019-05-02T13:06:08.734Z,25.53
2019-05-02T13:08:52.746Z,24.43
2019-05-02T13:11:37.031Z,24.90
2019-05-02T13:14:42.247Z,25.63
2019-05-02T13:17:29.324Z,24.90
2019-05-02T13:20:03.928Z,27.00
2019-05-02T13:22:54.339Z,26.00
2019-05-02T13:25:32.778Z,26.67
2019-05-02T13:28:03.344Z,26.07
2019-05-02T13:30:47.469Z,25.33
2019-05-02T13:33:57.049Z,26.00
2019-05-02T13:36:51.917Z,25.47
2019-05-02T13:39:55.013Z,26.03
2019-05-02T13:42:28.660Z,24.80
2019-05-02T13:45:08.033Z,24.67
2019-05-02T13:47:42.607Z,24.43
2019-05-02T13:50:17.346Z,24.23
2019-05-02T13:52:53.097Z,23.90
2019-05-02T13:55:31.745Z,24.20
2019-05-02T13:58:05.784Z,23.27
2019-05-02T14:00:45.274Z,23.17
2019-05-02T14:03:29.281Z,25.03
2019-05-02T14:06:03.091Z,24.60
2019-05-02T14:08:45.804Z,26.00
2019-05-02T14:11:37.110Z,24.83
2019-05-02T14:14:11.747Z,25.07
2019-05-02T14:16:53.705Z,25.80
2019-05-02T14:19:26.933Z,28.20
2019-05-02T14:22:00.462Z,27.23
2019-05-02T14:24:33.964Z,26.50
2019-05-02T14:27:17.264Z,26.63
2019-05-02T14:29:52.525Z,26.70
2019-05-02T14:32:26.876Z,25.23
2019-05-02T14:35:26.373Z,23.63
2019-05-02T14:38:13.136Z,22.63
2019-05-02T14:40:53.172Z,23.60
2019-05-02T14:43:53.148Z,24.37
2019-05-02T14:46:39.466Z,24.93
2019-05-02T14:49:12.066Z,27.03
2019-05-02T14:51:45.635Z,25.87
2019-05-02T14:54:19.973Z,27.33
2019-05-02T14:57:17.173Z,27.73
2019-05-02T14:59:50.296Z,27.17
2019-05-02T15:02:51.767Z,27.63
2019-05-02T15:05:34.171Z,28.50
2019-05-02T15:08:07.970Z,28.33
2019-05-02T15:10:56.400Z,28.07
2019-05-02T15:13:25.874Z,27.03
2019-05-02T15:15:59.583Z,25.63
2019-05-02T15:18:32.886Z,25.07
2019-05-02T15:21:12.364Z,24.87
2019-05-02T15:23:42.334Z,25.03
2019-05-02T15:26:26.269Z,24.60
2019-05-02T15:29:01.815Z,26.57
2019-05-02T15:31:50.025Z,22.90
2019-05-02T15:34:35.561Z,18.23
2019-05-02T15:37:29.245Z,18.10
2019-05-02T15:40:43.499Z,18.47
2019-05-02T15:42:56.845Z,18.77
2019-05-02T15:45:31.949Z,18.37
2019-05-02T15:48:05.553Z,16.77
2019-05-02T15:50:48.740Z,18.77
2019-05-02T15:53:39.149Z,17.27
2019-05-02T15:56:19.835Z,18.47
2019-05-02T15:58:49.450Z,19.03
2019-05-02T16:01:46.016Z,18.20
2019-05-02T16:04:24.088Z,19.00
2019-05-02T16:06:53.828Z,16.30
2019-05-02T16:09:27.434Z,17.53
2019-05-02T16:12:03.106Z,19.30
2019-05-02T16:14:37.774Z,19.37
2019-05-02T16:17:12.471Z,19.80
2019-05-02T16:19:53.176Z,18.10
2019-05-02T16:22:26.971Z,18.27
2019-05-02T16:25:01.642Z,18.37
2019-05-02T16:27:47.685Z,18.60
2019-05-02T16:30:32.129Z,18.87
2019-05-02T16:33:07.986Z,18.43
2019-05-02T16:35:42.064Z,19.47
2019-05-02T16:38:15.979Z,18.73
2019-05-02T16:40:49.523Z,17.40
2019-05-02T16:43:26.515Z,18.00
2019-05-02T16:46:01.745Z,18.17
2019-05-02T16:48:37.556Z,18.80
2019-05-02T16:51:29.444Z,16.70
2019-05-02T16:54:01.504Z,15.37
2019-05-02T16:56:31.729Z,14.77
2019-05-02T16:59:16.977Z,15.00
2019-05-02T17:01:52.646Z,14.83
2019-05-02T17:04:24.758Z,12.13
2019-05-02T17:07:02.098Z,11.60
2019-05-02T17:09:57.098Z,10.57
2019-05-02T17:12:31.830Z,12.77
2019-05-02T17:15:36.907Z,11.47
2019-05-02T17:18:19.434Z,9.57
2019-05-02T17:20:56.626Z,7.43
2019-05-02T17:23:27.831Z,7.50
2019-05-02T17:26:01.689Z,6.17
2019-05-02T17:28:37.999Z,5.83
2019-05-02T17:31:18.818Z,6.10
2019-05-02T17:33:46.200Z,5.77
2019-05-02T17:36:32.514Z,6.30
2019-05-02T17:39:14.586Z,6.73
2019-05-02T17:41:48.063Z,6.27
2019-05-02T17:44:24.481Z,5.47
2019-05-02T17:47:01.656Z,5.00
2019-05-02T17:49:43.967Z,4.30
2019-05-02T17:52:45.469Z,4.87
2019-05-02T17:55:19.168Z,4.00
2019-05-02T17:57:52.371Z,4.10
2019-05-02T18:00:26.841Z,4.37
2019-05-02T18:03:15.357Z,3.47
2019-05-02T18:05:47.551Z,3.37
2019-05-02T18:08:21.909Z,3.10
2019-05-02T18:11:06.402Z,3.10
2019-05-02T18:13:42.342Z,3.10
2019-05-02T18:16:16.790Z,3.40
2019-05-02T18:18:52.238Z,3.23
2019-05-02T18:21:35.537Z,3.63
2019-05-02T18:24:22.511Z,3.73
2019-05-02T18:26:56.716Z,3.70
2019-05-02T18:29:30.075Z,3.90
2019-05-02T18:32:17.428Z,4.03
2019-05-02T18:34:48.456Z,4.20
2019-05-02T18:37:24.934Z,4.07
2019-05-02T18:40:07.381Z,4.53
2019-05-02T18:42:42.892Z,4.20
2019-05-02T18:45:31.739Z,4.20
2019-05-02T18:48:13.822Z,4.70
2019-05-02T18:50:50.071Z,4.10
2019-05-02T18:53:26.978Z,4.40
2019-05-02T18:56:07.268Z,4.07
2019-05-02T18:58:44.538Z,5.30
2019-05-02T19:01:17.806Z,4.80
2019-05-02T19:03:55.965Z,4.50
2019-05-02T19:06:36.258Z,4.03
2019-05-02T19:09:25.020Z,4.40
2019-05-02T19:12:05.877Z,4.27
2019-05-02T19:14:39.128Z,4.47
2019-05-02T19:17:13.117Z,4.33
2019-05-02T19:19:46.579Z,4.27
2019-05-02T19:22:24.592Z,4.40
2019-05-02T19:25:17.658Z,3.80
2019-05-02T19:28:03.141Z,4.30
2019-05-02T19:30:38.387Z,4.30
2019-05-02T19:33:12.629Z,4.30
2019-05-02T19:35:54.551Z,4.20
2019-05-02T19:38:28.805Z,4.40
2019-05-02T19:41:11.801Z,4.40
2019-05-02T19:43:54.611Z,4.70
2019-05-02T19:46:38.967Z,4.20
2019-05-02T19:49:23.091Z,4.07
2019-05-02T19:51:58.308Z,4.90
2019-05-02T19:54:39.310Z,4.23
2019-05-02T19:57:17.251Z,4.87
2019-05-02T19:59:52.486Z,4.37
2019-05-02T20:02:25.753Z,4.90
2019-05-02T20:05:07.940Z,5.40
2019-05-02T20:07:42.669Z,4.27
2019-05-02T20:10:17.920Z,5.77
2019-05-02T20:12:52.744Z,4.60
2019-05-02T20:15:37.913Z,5.10
2019-05-02T20:18:12.464Z,5.00
2019-05-02T20:21:23.426Z,5.03
2019-05-02T20:23:47.248Z,5.00
2019-05-02T20:26:22.122Z,4.37
2019-05-02T20:28:56.649Z,4.13
2019-05-02T20:31:39.626Z,6.40
2019-05-02T20:34:22.409Z,5.27
2019-05-02T20:36:56.153Z,5.03
2019-05-02T20:39:38.843Z,4.20
2019-05-02T20:42:22.036Z,4.07
2019-05-02T20:45:04.688Z,4.40
2019-05-02T20:47:52.459Z,4.23
2019-05-02T20:50:25.742Z,4.57
2019-05-02T20:53:09.150Z,4.90
2019-05-02T20:55:42.752Z,4.60
2019-05-02T20:58:17.019Z,4.80
2019-05-02T21:01:08.571Z,4.47
2019-05-02T21:03:47.776Z,5.30
2019-05-02T21:06:40.953Z,5.03
2019-05-02T21:09:43.148Z,5.07
2019-05-02T21:12:18.182Z,4.97
2019-05-02T21:15:01.719Z,4.60
2019-05-02T21:17:36.610Z,4.90
2019-05-02T21:20:12.335Z,4.00
2019-05-02T21:22:45.603Z,4.73
2019-05-02T21:25:18.836Z,4.13
2019-05-02T21:27:53.491Z,4.30
2019-05-02T21:30:32.121Z,4.20
2019-05-02T21:33:05.623Z,4.53
2019-05-02T21:35:48.182Z,4.00
2019-05-02T21:38:22.595Z,4.40
2019-05-02T21:40:56.550Z,3.80
2019-05-02T21:43:31.666Z,4.10
2019-05-02T21:46:05.047Z,4.23
2019-05-02T21:48:42.015Z,4.33
2019-05-02T21:51:37.020Z,4.00
2019-05-02T21:54:33.397Z,4.33
2019-05-02T21:57:26.962Z,4.37
2019-05-02T22:00:12.751Z,4.10
2019-05-02T22:03:04.986Z,3.43
2019-05-02T22:05:42.270Z,3.70
2019-05-02T22:08:17.043Z,3.63
2019-05-02T22:11:06.760Z,3.53
2019-05-02T22:13:42.256Z,3.87
2019-05-02T22:16:17.966Z,3.70
2019-05-02T22:19:00.264Z,3.50
2019-05-02T22:21:35.114Z,3.27
2019-05-02T22:24:12.363Z,3.37
2019-05-02T22:26:48.873Z,3.50
2019-05-02T22:29:22.104Z,3.50
2019-05-02T22:32:04.264Z,3.20
2019-05-02T22:34:37.948Z,3.20
2019-05-02T22:37:13.317Z,3.87
2019-05-02T22:40:03.668Z,3.80
2019-05-02T22:42:35.386Z,3.00
2019-05-02T22:45:12.517Z,2.93
2019-05-02T22:47:46.454Z,3.17
2019-05-02T22:50:22.043Z,3.50
2019-05-02T22:53:04.376Z,2.77
2019-05-02T22:55:37.624Z,3.47
2019-05-02T22:58:11.517Z,3.40
2019-05-02T23:00:44.975Z,4.03
2019-05-02T23:03:18.128Z,3.47
2019-05-02T23:05:52.636Z,3.50
2019-05-02T23:08:36.920Z,3.37
2019-05-02T23:11:12.856Z,3.77
2019-05-02T23:13:54.791Z,3.63
2019-05-02T23:16:29.298Z,3.57
2019-05-02T23:19:02.816Z,4.30
2019-05-02T23:21:46.220Z,3.53
2019-05-02T23:24:54.083Z,4.17
2019-05-02T23:27:39.709Z,3.87
2019-05-02T23:30:19.978Z,4.30
2019-05-02T23:32:53.301Z,4.20
2019-05-02T23:35:26.763Z,3.80
2019-05-02T23:38:01.999Z,3.80
2019-05-02T23:40:35.376Z,3.77
2019-05-02T23:43:17.767Z,3.97
2019-05-02T23:45:52.625Z,4.20
2019-05-02T23:48:26.204Z,4.00
2019-05-02T23:51:02.647Z,3.73
2019-05-02T23:53:36.398Z,3.73
2019-05-02T23:56:09.545Z,4.40
2019-05-02T23:58:44.481Z,3.60
